sensor_id;sensor_type;location;lat;lon;timestamp;pressure;altitude;pressure_sealevel;temperature;humidity
30421;BME280;17218;54.070;10.012;2023-02-21T00:01:46;101401.56;;;8.01;100.00
30421;BME280;17218;54.070;10.012;2023-02-21T00:04:30;101382.53;;;7.95;100.00
30421;BME280;17218;54.070;10.012;2023-02-21T00:07:14;101373.88;;;7.88;100.00
30421;BME280;17218;54.070;10.012;2023-02-21T00:09:58;101394.22;;;7.70;100.00
30421;BME280;17218;54.070;10.012;2023-02-21T00:12:43;101417.56;;;7.79;100.00
30421;BME280;17218;54.070;10.012;2023-02-21T00:15:27;101411.63;;;7.83;100.00
30421;BME280;17218;54.070;10.012;2023-02-21T00:18:11;101395.41;;;7.91;100.00
30421;BME280;17218;54.070;10.012;2023-02-21T00:20:55;101406.38;;;7.79;100.00
30421;BME280;17218;54.070;10.012;2023-02-21T00:23:39;101431.06;;;7.61;100.00
30421;BME280;17218;54.070;10.012;2023-02-21T00:26:23;101445.72;;;7.63;100.00
30421;BME280;17218;54.070;10.012;2023-02-21T00:29:08;101460.34;;;7.66;100.00
30421;BME280;17218;54.070;10.012;2023-02-21T00:31:52;101464.88;;;7.80;100.00
30421;BME280;17218;54.070;10.012;2023-02-21T00:34:36;101455.50;;;7.85;100.00
30421;BME280;17218;54.070;10.012;2023-02-21T00:37:20;101447.78;;;7.86;100.00
30421;BME280;17218;54.070;10.012;2023-02-21T00:40:05;101433.22;;;7.90;100.00
30421;BME280;17218;54.070;10.012;2023-02-21T00:42:49;101420.28;;;7.88;100.00
30421;BME280;17218;54.070;10.012;2023-02-21T00:45:35;101422.84;;;7.87;100.00
30421;BME280;17218;54.070;10.012;2023-02-21T00:48:19;101427.09;;;7.82;100.00
30421;BME280;17218;54.070;10.012;2023-02-21T00:51:03;101440.72;;;7.73;100.00
30421;BME280;17218;54.070;10.012;2023-02-21T00:53:47;101445.06;;;7.79;100.00
30421;BME280;17218;54.070;10.012;2023-02-21T00:56:31;101435.47;;;7.70;100.00
30421;BME280;17218;54.070;10.012;2023-02-21T00:59:15;101396.75;;;7.67;100.00
30421;BME280;17218;54.070;10.012;2023-02-21T01:02:00;101396.75;;;7.67;100.00
30421;BME280;17218;54.070;10.012;2023-02-21T01:04:44;101363.13;;;7.60;100.00
30421;BME280;17218;54.070;10.012;2023-02-21T01:07:28;101370.81;;;7.56;100.00
30421;BME280;17218;54.070;10.012;2023-02-21T01:10:11;101332.81;;;7.44;100.00
30421;BME280;17218;54.070;10.012;2023-02-21T01:12:55;101307.00;;;7.40;100.00
30421;BME280;17218;54.070;10.012;2023-02-21T01:15:39;101276.69;;;7.25;100.00
30421;BME280;17218;54.070;10.012;2023-02-21T01:18:25;101261.25;;;7.27;100.00
30421;BME280;17218;54.070;10.012;2023-02-21T01:21:11;101254.41;;;7.29;100.00
30421;BME280;17218;54.070;10.012;2023-02-21T01:23:55;101260.34;;;7.23;100.00
30421;BME280;17218;54.070;10.012;2023-02-21T01:26:39;101273.19;;;7.20;100.00
30421;BME280;17218;54.070;10.012;2023-02-21T01:29:23;101296.53;;;7.30;100.00
30421;BME280;17218;54.070;10.012;2023-02-21T01:32:07;101300.78;;;7.29;100.00
30421;BME280;17218;54.070;10.012;2023-02-21T01:34:52;101320.53;;;7.27;100.00
30421;BME280;17218;54.070;10.012;2023-02-21T01:37:38;101360.19;;;7.35;100.00
30421;BME280;17218;54.070;10.012;2023-02-21T01:40:22;101362.03;;;7.44;100.00
30421;BME280;17218;54.070;10.012;2023-02-21T01:43:13;101363.84;;;7.48;100.00
30421;BME280;17218;54.070;10.012;2023-02-21T01:45:57;101365.50;;;7.46;100.00
30421;BME280;17218;54.070;10.012;2023-02-21T01:48:41;101379.34;;;7.53;100.00
30421;BME280;17218;54.070;10.012;2023-02-21T01:51:31;101367.41;;;7.58;100.00
30421;BME280;17218;54.070;10.012;2023-02-21T01:54:16;101368.16;;;7.51;100.00
30421;BME280;17218;54.070;10.012;2023-02-21T01:57:01;101369.16;;;7.59;100.00
30421;BME280;17218;54.070;10.012;2023-02-21T01:59:47;101385.34;;;7.49;100.00
30421;BME280;17218;54.070;10.012;2023-02-21T02:02:36;101399.16;;;7.54;100.00
30421;BME280;17218;54.070;10.012;2023-02-21T02:05:22;101386.19;;;7.51;100.00
30421;BME280;17218;54.070;10.012;2023-02-21T02:08:08;101383.72;;;7.56;100.00
30421;BME280;17218;54.070;10.012;2023-02-21T02:11:02;101348.34;;;7.47;100.00
30421;BME280;17218;54.070;10.012;2023-02-21T02:13:59;101293.13;;;7.32;100.00
30421;BME280;17218;54.070;10.012;2023-02-21T02:16:37;101283.63;;;7.30;100.00
30421;BME280;17218;54.070;10.012;2023-02-21T02:19:34;101274.13;;;7.27;100.00
30421;BME280;17218;54.070;10.012;2023-02-21T02:22:22;101245.66;;;7.18;100.00
30421;BME280;17218;54.070;10.012;2023-02-21T02:25:01;101234.50;;;7.17;100.00
30421;BME280;17218;54.070;10.012;2023-02-21T02:27:50;101230.16;;;7.16;100.00
30421;BME280;17218;54.070;10.012;2023-02-21T02:30:33;101226.78;;;7.19;100.00
30421;BME280;17218;54.070;10.012;2023-02-21T02:33:35;101214.56;;;7.05;100.00
30421;BME280;17218;54.070;10.012;2023-02-21T02:36:09;101213.66;;;7.03;100.00
30421;BME280;17218;54.070;10.012;2023-02-21T02:38:45;101210.28;;;7.07;100.00
30421;BME280;17218;54.070;10.012;2023-02-21T02:41:18;101201.59;;;6.99;100.00
30421;BME280;17218;54.070;10.012;2023-02-21T02:43:50;101206.03;;;7.09;100.00
30421;BME280;17218;54.070;10.012;2023-02-21T02:46:22;101193.25;;;7.15;100.00
30421;BME280;17218;54.070;10.012;2023-02-21T02:48:54;101183.69;;;7.08;100.00
30421;BME280;17218;54.070;10.012;2023-02-21T02:51:25;101198.22;;;7.04;100.00
30421;BME280;17218;54.070;10.012;2023-02-21T02:53:52;101192.19;;;7.02;100.00
30421;BME280;17218;54.070;10.012;2023-02-21T02:56:18;101199.03;;;7.00;100.00
30421;BME280;17218;54.070;10.012;2023-02-21T02:58:49;101205.00;;;6.99;100.00
30421;BME280;17218;54.070;10.012;2023-02-21T03:01:43;101204.84;;;6.88;100.00
30421;BME280;17218;54.070;10.012;2023-02-21T03:04:30;101218.56;;;6.84;100.00
30421;BME280;17218;54.070;10.012;2023-02-21T03:07:03;101229.06;;;7.00;100.00
30421;BME280;17218;54.070;10.012;2023-02-21T03:09:37;101230.09;;;7.10;100.00
30421;BME280;17218;54.070;10.012;2023-02-21T03:12:15;101206.78;;;7.02;100.00
30421;BME280;17218;54.070;10.012;2023-02-21T03:14:49;101206.84;;;7.07;100.00
30421;BME280;17218;54.070;10.012;2023-02-21T03:17:19;101198.31;;;7.09;100.00
30421;BME280;17218;54.070;10.012;2023-02-21T03:19:50;101188.66;;;6.96;100.00
30421;BME280;17218;54.070;10.012;2023-02-21T03:22:22;101182.75;;;7.03;100.00
30421;BME280;17218;54.070;10.012;2023-02-21T03:24:51;101171.53;;;6.99;100.00
30421;BME280;17218;54.070;10.012;2023-02-21T03:27:20;101167.28;;;7.01;100.00
30421;BME280;17218;54.070;10.012;2023-02-21T03:29:48;101157.66;;;6.89;100.00
30421;BME280;17218;54.070;10.012;2023-02-21T03:32:20;101169.72;;;6.94;100.00
30421;BME280;17218;54.070;10.012;2023-02-21T03:34:48;101154.16;;;6.84;100.00
30421;BME280;17218;54.070;10.012;2023-02-21T03:37:20;101160.84;;;6.73;100.00
30421;BME280;17218;54.070;10.012;2023-02-21T03:39:47;101168.63;;;6.76;100.00
30421;BME280;17218;54.070;10.012;2023-02-21T03:42:13;101186.66;;;6.77;100.00
30421;BME280;17218;54.070;10.012;2023-02-21T03:44:40;101177.19;;;6.75;100.00
30421;BME280;17218;54.070;10.012;2023-02-21T03:47:06;101186.78;;;6.84;100.00
30421;BME280;17218;54.070;10.012;2023-02-21T03:49:33;101190.16;;;6.83;100.00
30421;BME280;17218;54.070;10.012;2023-02-21T03:51:59;101185.88;;;6.82;100.00
30421;BME280;17218;54.070;10.012;2023-02-21T03:54:27;101191.84;;;6.80;100.00
30421;BME280;17218;54.070;10.012;2023-02-21T03:56:53;101193.31;;;6.63;100.00
30421;BME280;17218;54.070;10.012;2023-02-21T03:59:20;101202.72;;;6.62;100.00
30421;BME280;17218;54.070;10.012;2023-02-21T04:01:46;101208.75;;;6.63;100.00
30421;BME280;17218;54.070;10.012;2023-02-21T04:04:13;101209.66;;;6.66;100.00
30421;BME280;17218;54.070;10.012;2023-02-21T04:06:39;101204.63;;;6.73;100.00
30421;BME280;17218;54.070;10.012;2023-02-21T04:09:06;101206.34;;;6.74;100.00
30421;BME280;17218;54.070;10.012;2023-02-21T04:11:33;101209.84;;;6.77;100.00
30421;BME280;17218;54.070;10.012;2023-02-21T04:14:00;101199.56;;;6.79;100.00
30421;BME280;17218;54.070;10.012;2023-02-21T04:16:29;101200.41;;;6.76;100.00
30421;BME280;17218;54.070;10.012;2023-02-21T04:18:55;101192.69;;;6.78;100.00
30421;BME280;17218;54.070;10.012;2023-02-21T04:21:22;101191.78;;;6.74;100.00
30421;BME280;17218;54.070;10.012;2023-02-21T04:23:49;101202.84;;;6.68;100.00
30421;BME280;17218;54.070;10.012;2023-02-21T04:26:15;101202.63;;;6.56;100.00
30421;BME280;17218;54.070;10.012;2023-02-21T04:35:26;101198.28;;;6.53;100.00
30421;BME280;17218;54.070;10.012;2023-02-21T04:37:53;101191.41;;;6.51;100.00
30421;BME280;17218;54.070;10.012;2023-02-21T04:40:19;101179.19;;;6.40;100.00
30421;BME280;17218;54.070;10.012;2023-02-21T04:42:46;101184.34;;;6.40;100.00
30421;BME280;17218;54.070;10.012;2023-02-21T04:45:12;101169.03;;;6.47;100.00
30421;BME280;17218;54.070;10.012;2023-02-21T04:47:39;101177.53;;;6.44;100.00
30421;BME280;17218;54.070;10.012;2023-02-21T04:50:06;101164.69;;;6.46;100.00
30421;BME280;17218;54.070;10.012;2023-02-21T04:52:34;101169.03;;;6.48;100.00
30421;BME280;17218;54.070;10.012;2023-02-21T04:55:00;101162.22;;;6.50;100.00
30421;BME280;17218;54.070;10.012;2023-02-21T04:57:26;101153.47;;;6.42;100.00
30421;BME280;17218;54.070;10.012;2023-02-21T04:59:57;101156.88;;;6.38;100.00
30421;BME280;17218;54.070;10.012;2023-02-21T05:02:23;101168.97;;;6.43;100.00
30421;BME280;17218;54.070;10.012;2023-02-21T05:04:50;101169.03;;;6.48;100.00
30421;BME280;17218;54.070;10.012;2023-02-21T05:07:17;101171.50;;;6.42;100.00
30421;BME280;17218;54.070;10.012;2023-02-21T05:09:44;101167.97;;;6.35;100.00
30421;BME280;17218;54.070;10.012;2023-02-21T05:12:11;101169.56;;;6.28;100.00
30421;BME280;17218;54.070;10.012;2023-02-21T05:14:38;101168.75;;;6.31;100.00
30421;BME280;17218;54.070;10.012;2023-02-21T05:17:05;101158.38;;;6.25;100.00
30421;BME280;17218;54.070;10.012;2023-02-21T05:19:32;101166.69;;;6.11;100.00
30421;BME280;17218;54.070;10.012;2023-02-21T05:22:01;101172.78;;;6.16;100.00
30421;BME280;17218;54.070;10.012;2023-02-21T05:24:29;101191.84;;;6.26;100.00
30421;BME280;17218;54.070;10.012;2023-02-21T05:26:57;101179.84;;;6.27;100.00
30421;BME280;17218;54.070;10.012;2023-02-21T05:29:23;101182.28;;;6.19;100.00
30421;BME280;17218;54.070;10.012;2023-02-21T05:31:50;101184.00;;;6.20;100.00
30421;BME280;17218;54.070;10.012;2023-02-21T05:34:17;101182.31;;;6.20;100.00
30421;BME280;17218;54.070;10.012;2023-02-21T05:36:44;101180.53;;;6.19;100.00
30421;BME280;17218;54.070;10.012;2023-02-21T05:39:10;101183.13;;;6.19;100.00
30421;BME280;17218;54.070;10.012;2023-02-21T05:41:37;101186.53;;;6.18;100.00
30421;BME280;17218;54.070;10.012;2023-02-21T05:44:05;101195.00;;;6.11;100.00
30421;BME280;17218;54.070;10.012;2023-02-21T05:46:33;101202.72;;;6.13;100.00
30421;BME280;17218;54.070;10.012;2023-02-21T05:49:02;101197.59;;;6.14;100.00
30421;BME280;17218;54.070;10.012;2023-02-21T05:51:33;101200.31;;;6.20;100.00
30421;BME280;17218;54.070;10.012;2023-02-21T05:54:00;101195.97;;;6.19;100.00
30421;BME280;17218;54.070;10.012;2023-02-21T05:56:27;101190.00;;;6.20;100.00
30421;BME280;17218;54.070;10.012;2023-02-21T05:58:53;101185.78;;;6.24;100.00
30421;BME280;17218;54.070;10.012;2023-02-21T06:01:21;101195.88;;;6.13;100.00
30421;BME280;17218;54.070;10.012;2023-02-21T06:03:47;101187.34;;;6.16;100.00
30421;BME280;17218;54.070;10.012;2023-02-21T06:06:14;101196.47;;;6.01;100.00
30421;BME280;17218;54.070;10.012;2023-02-21T06:08:42;101202.69;;;6.10;100.00
30421;BME280;17218;54.070;10.012;2023-02-21T06:11:09;101204.44;;;6.12;100.00
30421;BME280;17218;54.070;10.012;2023-02-21T06:13:35;101198.47;;;6.13;100.00
30421;BME280;17218;54.070;10.012;2023-02-21T06:16:02;101203.66;;;6.16;100.00
30421;BME280;17218;54.070;10.012;2023-02-21T06:18:29;101211.53;;;6.24;100.00
30421;BME280;17218;54.070;10.012;2023-02-21T06:20:56;101207.16;;;6.22;100.00
30421;BME280;17218;54.070;10.012;2023-02-21T06:23:22;101213.38;;;6.31;100.00
30421;BME280;17218;54.070;10.012;2023-02-21T06:25:50;101209.81;;;6.23;100.00
30421;BME280;17218;54.070;10.012;2023-02-21T06:28:16;101202.09;;;6.23;100.00
30421;BME280;17218;54.070;10.012;2023-02-21T06:30:43;101215.00;;;6.26;100.00
30421;BME280;17218;54.070;10.012;2023-02-21T06:33:10;101218.38;;;6.25;100.00
30421;BME280;17218;54.070;10.012;2023-02-21T06:35:38;101225.38;;;6.32;100.00
30421;BME280;17218;54.070;10.012;2023-02-21T06:38:04;101227.94;;;6.32;100.00
30421;BME280;17218;54.070;10.012;2023-02-21T06:40:31;101221.88;;;6.29;100.00
30421;BME280;17218;54.070;10.012;2023-02-21T06:42:57;101230.63;;;6.37;100.00
30421;BME280;17218;54.070;10.012;2023-02-21T06:45:23;101228.03;;;6.36;100.00
30421;BME280;17218;54.070;10.012;2023-02-21T06:47:50;101242.72;;;6.41;100.00
30421;BME280;17218;54.070;10.012;2023-02-21T06:50:16;101245.47;;;6.51;100.00
30421;BME280;17218;54.070;10.012;2023-02-21T06:52:44;101242.06;;;6.55;100.00
30421;BME280;17218;54.070;10.012;2023-02-21T06:55:11;101239.53;;;6.56;100.00
30421;BME280;17218;54.070;10.012;2023-02-21T06:57:37;101246.31;;;6.53;100.00
30421;BME280;17218;54.070;10.012;2023-02-21T07:00:05;101244.56;;;6.49;100.00
30421;BME280;17218;54.070;10.012;2023-02-21T07:02:31;101253.09;;;6.46;100.00
30421;BME280;17218;54.070;10.012;2023-02-21T07:04:58;101254.91;;;6.52;100.00
30421;BME280;17218;54.070;10.012;2023-02-21T07:07:24;101243.00;;;6.60;100.00
30421;BME280;17218;54.070;10.012;2023-02-21T07:09:52;101255.97;;;6.63;100.00
30421;BME280;17218;54.070;10.012;2023-02-21T07:12:18;101242.88;;;6.51;100.00
30421;BME280;17218;54.070;10.012;2023-02-21T07:14:45;101237.75;;;6.51;100.00
30421;BME280;17218;54.070;10.012;2023-02-21T07:17:11;101243.91;;;6.61;100.00
30421;BME280;17218;54.070;10.012;2023-02-21T07:19:38;101241.28;;;6.58;100.00
30421;BME280;17218;54.070;10.012;2023-02-21T07:22:06;101243.84;;;6.58;100.00
30421;BME280;17218;54.070;10.012;2023-02-21T07:24:32;101255.03;;;6.58;100.00
30421;BME280;17218;54.070;10.012;2023-02-21T07:27:00;101244.44;;;6.42;100.00
30421;BME280;17218;54.070;10.012;2023-02-21T07:29:27;101247.75;;;6.37;100.00
30421;BME280;17218;54.070;10.012;2023-02-21T07:31:54;101265.69;;;6.32;100.00
30421;BME280;17218;54.070;10.012;2023-02-21T07:34:20;101264.75;;;6.27;100.00
30421;BME280;17218;54.070;10.012;2023-02-21T07:36:47;101269.06;;;6.29;100.00
30421;BME280;17218;54.070;10.012;2023-02-21T07:39:14;101276.84;;;6.32;100.00
30421;BME280;17218;54.070;10.012;2023-02-21T07:41:40;101286.03;;;6.19;100.00
30421;BME280;17218;54.070;10.012;2023-02-21T07:44:08;101292.91;;;6.19;100.00
30421;BME280;17218;54.070;10.012;2023-02-21T07:46:35;101282.50;;;6.14;100.00
30421;BME280;17218;54.070;10.012;2023-02-21T07:49:01;101286.91;;;6.20;100.00
30421;BME280;17218;54.070;10.012;2023-02-21T07:51:28;101290.47;;;6.27;100.00
30421;BME280;17218;54.070;10.012;2023-02-21T07:53:55;101291.28;;;6.24;100.00
30421;BME280;17218;54.070;10.012;2023-02-21T07:56:22;101289.66;;;6.29;100.00
30421;BME280;17218;54.070;10.012;2023-02-21T07:58:48;101289.88;;;6.42;100.00
30421;BME280;17218;54.070;10.012;2023-02-21T08:01:16;101295.16;;;6.48;100.00
30421;BME280;17218;54.070;10.012;2023-02-21T08:03:43;101303.97;;;6.60;100.00
30421;BME280;17218;54.070;10.012;2023-02-21T08:06:09;101298.06;;;6.65;100.00
30421;BME280;17218;54.070;10.012;2023-02-21T08:08:36;101286.09;;;6.67;100.00
30421;BME280;17218;54.070;10.012;2023-02-21T08:11:03;101299.09;;;6.77;100.00
30421;BME280;17218;54.070;10.012;2023-02-21T08:13:30;101295.56;;;6.72;100.00
30421;BME280;17218;54.070;10.012;2023-02-21T08:15:56;101293.09;;;6.76;100.00
30421;BME280;17218;54.070;10.012;2023-02-21T08:18:24;101293.06;;;6.75;100.00
30421;BME280;17218;54.070;10.012;2023-02-21T08:20:51;101301.78;;;6.83;100.00
30421;BME280;17218;54.070;10.012;2023-02-21T08:23:18;101298.50;;;6.94;100.00
30421;BME280;17218;54.070;10.012;2023-02-21T08:25:46;101300.31;;;6.98;100.00
30421;BME280;17218;54.070;10.012;2023-02-21T08:28:13;101283.94;;;6.94;100.00
30421;BME280;17218;54.070;10.012;2023-02-21T08:30:40;101296.00;;;6.95;100.00
30421;BME280;17218;54.070;10.012;2023-02-21T08:33:06;101293.63;;;7.09;100.00
30421;BME280;17218;54.070;10.012;2023-02-21T08:35:34;101292.09;;;7.21;100.00
30421;BME280;17218;54.070;10.012;2023-02-21T08:38:01;101293.94;;;7.30;100.00
30421;BME280;17218;54.070;10.012;2023-02-21T08:40:28;101294.84;;;7.32;100.00
30421;BME280;17218;54.070;10.012;2023-02-21T08:42:56;101294.22;;;7.48;100.00
30421;BME280;17218;54.070;10.012;2023-02-21T08:45:24;101303.06;;;7.66;100.00
30421;BME280;17218;54.070;10.012;2023-02-21T08:47:52;101293.63;;;7.68;100.00
30421;BME280;17218;54.070;10.012;2023-02-21T08:50:20;101294.69;;;7.84;100.00
30421;BME280;17218;54.070;10.012;2023-02-21T08:52:49;101294.03;;;7.99;100.00
30421;BME280;17218;54.070;10.012;2023-02-21T08:55:16;101277.75;;;8.04;100.00
30421;BME280;17218;54.070;10.012;2023-02-21T08:57:43;101282.00;;;8.02;100.00
30421;BME280;17218;54.070;10.012;2023-02-21T09:00:13;101275.28;;;8.16;100.00
30421;BME280;17218;54.070;10.012;2023-02-21T09:02:39;101268.47;;;8.21;100.00
30421;BME280;17218;54.070;10.012;2023-02-21T09:05:06;101268.66;;;8.37;100.00
30421;BME280;17218;54.070;10.012;2023-02-21T09:07:34;101262.78;;;8.54;100.00
30421;BME280;17218;54.070;10.012;2023-02-21T09:10:02;101266.38;;;8.65;100.00
30421;BME280;17218;54.070;10.012;2023-02-21T09:12:29;101268.19;;;8.79;100.00
30421;BME280;17218;54.070;10.012;2023-02-21T09:14:55;101265.75;;;8.94;100.00
30421;BME280;17218;54.070;10.012;2023-02-21T09:17:22;101266.72;;;9.07;100.00
30421;BME280;17218;54.070;10.012;2023-02-21T09:19:48;101265.09;;;9.25;100.00
30421;BME280;17218;54.070;10.012;2023-02-21T09:22:15;101265.91;;;9.16;100.00
30421;BME280;17218;54.070;10.012;2023-02-21T09:24:42;101254.69;;;9.14;100.00
30421;BME280;17218;54.070;10.012;2023-02-21T09:27:10;101258.16;;;9.18;100.00
30421;BME280;17218;54.070;10.012;2023-02-21T09:29:37;101253.81;;;9.14;100.00
30421;BME280;17218;54.070;10.012;2023-02-21T09:32:03;101257.28;;;9.19;100.00
30421;BME280;17218;54.070;10.012;2023-02-21T09:34:30;101250.34;;;9.12;100.00
30421;BME280;17218;54.070;10.012;2023-02-21T09:36:56;101249.44;;;9.02;100.00
30421;BME280;17218;54.070;10.012;2023-02-21T09:39:24;101251.22;;;9.09;100.00
30421;BME280;17218;54.070;10.012;2023-02-21T09:41:50;101253.81;;;9.12;100.00
30421;BME280;17218;54.070;10.012;2023-02-21T09:44:23;101260.59;;;8.98;100.00
30421;BME280;17218;54.070;10.012;2023-02-21T09:46:53;101254.53;;;8.91;100.00
30421;BME280;17218;54.070;10.012;2023-02-21T09:49:24;101257.06;;;8.86;100.00
30421;BME280;17218;54.070;10.012;2023-02-21T09:51:52;101262.28;;;8.94;100.00
30421;BME280;17218;54.070;10.012;2023-02-21T09:54:23;101258.91;;;9.01;100.00
30421;BME280;17218;54.070;10.012;2023-02-21T09:56:50;101258.25;;;9.32;100.00
30421;BME280;17218;54.070;10.012;2023-02-21T09:59:17;101273.19;;;9.89;100.00
30421;BME280;17218;54.070;10.012;2023-02-21T10:01:55;101259.53;;;10.33;100.00
30421;BME280;17218;54.070;10.012;2023-02-21T10:04:33;101266.47;;;10.37;100.00
30421;BME280;17218;54.070;10.012;2023-02-21T10:07:09;101263.06;;;10.54;100.00
30421;BME280;17218;54.070;10.012;2023-02-21T10:09:41;101263.94;;;10.68;100.00
30421;BME280;17218;54.070;10.012;2023-02-21T10:12:16;101276.03;;;10.85;100.00
30421;BME280;17218;54.070;10.012;2023-02-21T10:15:04;101276.00;;;10.54;100.00
30421;BME280;17218;54.070;10.012;2023-02-21T10:17:45;101275.16;;;10.48;100.00
30421;BME280;17218;54.070;10.012;2023-02-21T10:20:20;101288.88;;;10.25;100.00
30421;BME280;17218;54.070;10.012;2023-02-21T10:22:49;101290.59;;;10.25;100.00
30421;BME280;17218;54.070;10.012;2023-02-21T10:25:23;101281.09;;;10.24;100.00
30421;BME280;17218;54.070;10.012;2023-02-21T10:27:51;101291.38;;;10.07;100.00
30421;BME280;17218;54.070;10.012;2023-02-21T10:30:25;101292.28;;;10.18;100.00
30421;BME280;17218;54.070;10.012;2023-02-21T10:32:54;101293.19;;;10.30;100.00
30421;BME280;17218;54.070;10.012;2023-02-21T10:35:21;101288.88;;;10.29;100.00
30421;BME280;17218;54.070;10.012;2023-02-21T10:37:49;101283.72;;;10.41;100.00
30421;BME280;17218;54.070;10.012;2023-02-21T10:40:38;101292.31;;;10.28;100.00
30421;BME280;17218;54.070;10.012;2023-02-21T10:43:08;101289.72;;;10.34;100.00
30421;BME280;17218;54.070;10.012;2023-02-21T10:45:39;101283.72;;;10.41;100.00
30421;BME280;17218;54.070;10.012;2023-02-21T10:48:11;101289.75;;;10.42;100.00
30421;BME280;17218;54.070;10.012;2023-02-21T10:50:42;101290.59;;;10.25;100.00
30421;BME280;17218;54.070;10.012;2023-02-21T10:53:22;101287.97;;;10.11;100.00
30421;BME280;17218;54.070;10.012;2023-02-21T10:56:18;101294.84;;;10.09;100.00
30421;BME280;17218;54.070;10.012;2023-02-21T10:58:47;101287.97;;;10.09;100.00
30421;BME280;17218;54.070;10.012;2023-02-21T11:01:16;101285.44;;;10.33;100.00
30421;BME280;17218;54.070;10.012;2023-02-21T11:03:48;101301.06;;;10.59;100.00
30421;BME280;17218;54.070;10.012;2023-02-21T11:06:32;101295.03;;;10.73;100.00
30421;BME280;17218;54.070;10.012;2023-02-21T11:09:00;101296.78;;;10.72;100.00
30421;BME280;17218;54.070;10.012;2023-02-21T11:11:34;101296.78;;;10.83;100.00
30421;BME280;17218;54.070;10.012;2023-02-21T11:14:11;101287.22;;;11.32;100.00
30421;BME280;17218;54.070;10.012;2023-02-21T11:16:44;101287.16;;;11.72;100.00
30421;BME280;17218;54.070;10.012;2023-02-21T11:19:13;101293.94;;;12.04;100.00
30421;BME280;17218;54.070;10.012;2023-02-21T11:21:40;101288.75;;;12.10;100.00
30421;BME280;17218;54.070;10.012;2023-02-21T11:24:10;101294.84;;;11.87;100.00
30421;BME280;17218;54.070;10.012;2023-02-21T11:26:43;101294.03;;;11.79;100.00
30421;BME280;17218;54.070;10.012;2023-02-21T11:29:13;101293.97;;;11.96;100.00
30421;BME280;17218;54.070;10.012;2023-02-21T11:31:41;101290.59;;;11.69;100.00
30421;BME280;17218;54.070;10.012;2023-02-21T11:34:12;101292.34;;;11.64;100.00
30421;BME280;17218;54.070;10.012;2023-02-21T11:36:41;101300.97;;;11.77;100.00
30421;BME280;17218;54.070;10.012;2023-02-21T11:39:15;101296.53;;;12.04;100.00
30421;BME280;17218;54.070;10.012;2023-02-21T11:41:45;101302.31;;;12.62;100.00
30421;BME280;17218;54.070;10.012;2023-02-21T11:44:27;101298.44;;;13.14;100.00
30421;BME280;17218;54.070;10.012;2023-02-21T11:47:00;101282.69;;;13.29;100.00
30421;BME280;17218;54.070;10.012;2023-02-21T11:49:38;101286.78;;;13.51;100.00
30421;BME280;17218;54.070;10.012;2023-02-21T11:52:10;101277.09;;;13.67;100.00
30421;BME280;17218;54.070;10.012;2023-02-21T11:54:39;101284.47;;;14.04;100.00
30421;BME280;17218;54.070;10.012;2023-02-21T11:57:12;101281.00;;;14.02;100.00
30421;BME280;17218;54.070;10.012;2023-02-21T11:59:45;101287.16;;;14.00;100.00
30421;BME280;17218;54.070;10.012;2023-02-21T12:02:27;101280.25;;;13.12;100.00
30421;BME280;17218;54.070;10.012;2023-02-21T12:05:10;101289.47;;;12.37;100.00
30421;BME280;17218;54.070;10.012;2023-02-21T12:07:42;101291.31;;;12.15;100.00
30421;BME280;17218;54.070;10.012;2023-02-21T12:10:30;101288.06;;;11.55;100.00
30421;BME280;17218;54.070;10.012;2023-02-21T12:13:04;101294.09;;;11.52;100.00
30421;BME280;17218;54.070;10.012;2023-02-21T12:15:43;101289.84;;;11.23;100.00
30421;BME280;17218;54.070;10.012;2023-02-21T12:18:29;101297.63;;;10.93;100.00
30421;BME280;17218;54.070;10.012;2023-02-21T12:21:12;101292.47;;;10.87;100.00
30421;BME280;17218;54.070;10.012;2023-02-21T12:23:49;101289.88;;;10.87;100.00
30421;BME280;17218;54.070;10.012;2023-02-21T12:26:26;101293.31;;;10.88;100.00
30421;BME280;17218;54.070;10.012;2023-02-21T12:29:14;101288.13;;;11.13;100.00
30421;BME280;17218;54.070;10.012;2023-02-21T12:31:56;101289.84;;;11.29;100.00
30421;BME280;17218;54.070;10.012;2023-02-21T12:34:40;101298.50;;;11.24;100.00
30421;BME280;17218;54.070;10.012;2023-02-21T12:37:21;101289.84;;;11.11;100.00
30421;BME280;17218;54.070;10.012;2023-02-21T12:39:59;101291.53;;;11.32;100.00
30421;BME280;17218;54.070;10.012;2023-02-21T12:42:40;101288.09;;;11.44;100.00
30421;BME280;17218;54.070;10.012;2023-02-21T12:45:28;101295.84;;;11.39;100.00
30421;BME280;17218;54.070;10.012;2023-02-21T12:48:06;101298.47;;;11.17;100.00
30421;BME280;17218;54.070;10.012;2023-02-21T12:50:39;101289.81;;;11.42;100.00
30421;BME280;17218;54.070;10.012;2023-02-21T12:53:12;101284.66;;;11.37;100.00
30421;BME280;17218;54.070;10.012;2023-02-21T12:55:41;101286.19;;;11.91;100.00
30421;BME280;17218;54.070;10.012;2023-02-21T12:58:14;101289.31;;;12.58;100.00
30421;BME280;17218;54.070;10.012;2023-02-21T13:00:46;101278.56;;;13.05;100.00
30421;BME280;17218;54.070;10.012;2023-02-21T13:03:30;101274.81;;;13.35;100.00
30421;BME280;17218;54.070;10.012;2023-02-21T13:06:03;101275.81;;;13.22;100.00
30421;BME280;17218;54.070;10.012;2023-02-21T13:08:38;101286.03;;;13.42;100.00
30421;BME280;17218;54.070;10.012;2023-02-21T13:11:09;101282.44;;;13.56;100.00
30421;BME280;17218;54.070;10.012;2023-02-21T13:13:37;101281.25;;;13.82;100.00